La Reforma, Texas
Current Conditions -  °F | °C
As of 5:35 AM on Tuesday 21 Oct 2014 (Local Time) from KEBG Reporting Station
Haze Haze  
Wind Chill: 70°   Ceiling: Unl
Heat Index: 70°   Visibility: 4mi
Dew Point: 67°   Wind: 6mph
Humidity: 92%   Direction: 340°NNW
Pressure: 29.93"   Gusts: NA
Location:  26.6829°N, 98.4118°W
Report Text: KEBG 211035Z AUTO 34005KT 4SM BR CLR 21/20 A2993 RMK AO2 T02100196
Loading
Personal Weather Stations






























Interactive Weather Map
Tropical Storm Tracking
New forecast layout! Learn more

10-Day Weather Forecast

Advertisements
Track Severe Weather on mobile